createdAt,value
2023-03-03T00:00:02.435Z,95620.00
2023-03-03T00:04:15.089Z,95622.00
2023-03-03T00:08:17.982Z,95621.00
2023-03-03T00:12:24.901Z,95624.00
2023-03-03T00:16:32.191Z,95618.00
2023-03-03T00:20:37.733Z,95614.00
2023-03-03T00:24:40.553Z,95613.00
2023-03-03T00:28:47.192Z,95605.00
2023-03-03T00:32:53.058Z,95605.00
2023-03-03T00:36:57.263Z,95607.00
2023-03-03T00:41:00.095Z,95609.00
2023-03-03T00:45:03.173Z,95619.00
2023-03-03T00:49:22.080Z,95616.00
2023-03-03T00:53:26.535Z,95621.00
2023-03-03T00:57:29.616Z,95625.00
2023-03-03T01:01:32.816Z,95625.00
2023-03-03T01:05:37.699Z,95623.00
2023-03-03T01:09:40.607Z,95623.00
2023-03-03T01:13:45.527Z,95609.00
2023-03-03T01:17:48.355Z,95623.00
2023-03-03T01:21:52.685Z,95617.00
2023-03-03T01:25:55.594Z,95607.00
2023-03-03T01:29:58.512Z,95610.00
2023-03-03T01:34:01.643Z,95611.00
2023-03-03T01:38:05.812Z,95614.00
2023-03-03T01:42:09.171Z,95605.00
2023-03-03T01:46:46.150Z,95605.00
2023-03-03T01:50:52.963Z,95604.00
2023-03-03T01:55:02.909Z,95607.00
2023-03-03T01:59:11.099Z,95591.00
2023-03-03T02:03:14.355Z,95586.00
2023-03-03T02:07:18.284Z,95584.00
2023-03-03T02:11:24.077Z,95582.00
2023-03-03T02:15:29.293Z,95592.00
2023-03-03T02:19:42.246Z,95578.00
2023-03-03T02:23:54.043Z,95574.00
2023-03-03T02:27:59.916Z,95579.00
2023-03-03T02:32:03.850Z,95579.00
2023-03-03T02:36:07.340Z,95580.00
2023-03-03T02:40:12.064Z,95579.00
2023-03-03T02:44:18.466Z,95589.00
2023-03-03T02:48:22.524Z,95579.00
2023-03-03T02:52:25.346Z,95584.00
2023-03-03T02:56:28.461Z,95584.00
2023-03-03T03:00:33.257Z,95580.00
2023-03-03T03:04:37.067Z,95583.00
2023-03-03T03:08:41.009Z,95582.00
2023-03-03T03:12:43.942Z,95581.00
2023-03-03T03:16:49.684Z,95581.00
2023-03-03T03:20:52.713Z,95578.00
2023-03-03T03:24:55.985Z,95586.00
2023-03-03T03:28:58.887Z,95583.00
2023-03-03T03:33:03.223Z,95577.00
2023-03-03T03:37:06.602Z,95596.00
2023-03-03T03:41:09.551Z,95594.00
2023-03-03T03:45:15.188Z,95597.00
2023-03-03T03:49:21.821Z,95588.00
2023-03-03T03:53:26.908Z,95585.00
2023-03-03T03:57:30.114Z,95584.00
2023-03-03T04:01:33.069Z,95587.00
2023-03-03T04:05:37.583Z,95594.00
2023-03-03T04:09:41.437Z,95588.00
2023-03-03T04:13:45.554Z,95590.00
2023-03-03T04:17:48.808Z,95602.00
2023-03-03T04:21:53.653Z,95593.00
2023-03-03T04:25:56.590Z,95599.00
2023-03-03T04:29:59.913Z,95602.00
2023-03-03T04:34:03.082Z,95595.00
2023-03-03T04:38:07.953Z,95605.00
2023-03-03T04:42:13.248Z,95605.00
2023-03-03T04:46:16.657Z,95592.00
2023-03-03T04:50:20.845Z,95599.00
2023-03-03T04:54:25.155Z,95591.00
2023-03-03T04:58:28.044Z,95590.00
2023-03-03T05:02:32.078Z,95594.00
2023-03-03T05:06:35.662Z,95587.00
2023-03-03T05:10:39.971Z,95590.00
2023-03-03T05:14:42.882Z,95586.00
2023-03-03T05:18:46.593Z,95595.00
2023-03-03T05:22:49.412Z,95589.00
2023-03-03T05:26:53.775Z,95596.00
2023-03-03T05:30:56.589Z,95599.00
2023-03-03T05:34:59.374Z,95598.00
2023-03-03T05:39:02.174Z,95605.00
2023-03-03T05:43:07.106Z,95612.00
2023-03-03T05:47:09.927Z,95617.00
2023-03-03T05:51:12.780Z,95617.00
2023-03-03T05:55:15.601Z,95619.00
2023-03-03T05:59:20.657Z,95630.00
2023-03-03T06:03:23.551Z,95625.00
2023-03-03T06:07:26.319Z,95625.00
2023-03-03T06:11:29.205Z,95634.00
2023-03-03T06:15:33.371Z,95633.00
2023-03-03T06:19:37.093Z,95648.00
2023-03-03T06:23:39.870Z,95654.00
2023-03-03T06:27:42.652Z,95658.00
2023-03-03T06:31:46.851Z,95664.00
2023-03-03T06:35:51.410Z,95656.00
2023-03-03T06:39:54.309Z,95659.00
2023-03-03T06:43:58.337Z,95667.00
2023-03-03T06:48:03.037Z,95667.00
2023-03-03T06:52:13.074Z,95663.00
2023-03-03T06:56:16.136Z,95655.00
2023-03-03T07:00:21.260Z,95672.00
2023-03-03T07:04:30.965Z,95664.00
2023-03-03T07:08:33.974Z,95671.00
2023-03-03T07:12:36.904Z,95676.00
2023-03-03T07:16:39.724Z,95680.00
2023-03-03T07:20:44.480Z,95694.00
2023-03-03T07:24:52.493Z,95693.00
2023-03-03T07:28:57.551Z,95691.00
2023-03-03T07:33:00.611Z,95703.00
2023-03-03T07:37:11.483Z,95699.00
2023-03-03T07:41:20.831Z,95699.00
2023-03-03T07:45:27.695Z,95700.00
2023-03-03T07:49:35.901Z,95714.00
2023-03-03T07:53:40.140Z,95715.00
2023-03-03T07:57:43.083Z,95726.00
2023-03-03T08:01:49.715Z,95726.00
2023-03-03T08:05:53.164Z,95716.00
2023-03-03T08:10:00.741Z,95721.00
2023-03-03T08:14:10.417Z,95728.00
2023-03-03T08:18:22.622Z,95731.00
2023-03-03T08:22:32.385Z,95726.00
2023-03-03T08:26:36.729Z,95711.00
2023-03-03T08:30:39.760Z,95722.00
2023-03-03T08:34:42.630Z,95721.00
2023-03-03T08:38:45.473Z,95714.00
2023-03-03T08:42:49.960Z,95725.00
2023-03-03T08:46:52.783Z,95734.00
2023-03-03T08:50:55.827Z,95745.00
2023-03-03T08:54:58.654Z,95748.00
2023-03-03T08:59:03.415Z,95756.00
2023-03-03T09:03:07.125Z,95755.00
2023-03-03T09:07:10.140Z,95750.00
2023-03-03T09:11:13.777Z,95754.00
2023-03-03T09:15:22.316Z,95753.00
2023-03-03T09:19:29.427Z,95765.00
2023-03-03T09:23:35.924Z,95758.00
2023-03-03T09:27:39.482Z,95767.00
2023-03-03T09:31:46.080Z,95767.00
2023-03-03T09:35:52.800Z,95769.00
2023-03-03T09:39:57.413Z,95775.00
2023-03-03T09:44:32.481Z,95776.00
2023-03-03T09:48:50.124Z,95775.00
2023-03-03T09:52:59.778Z,95789.00
2023-03-03T09:57:09.856Z,95801.00
2023-03-03T10:01:36.270Z,95795.00
2023-03-03T10:05:48.977Z,95807.00
2023-03-03T10:10:06.815Z,95795.00
2023-03-03T10:14:22.025Z,95807.00
2023-03-03T10:18:33.574Z,95808.00
2023-03-03T10:22:48.994Z,95810.00
2023-03-03T10:27:13.522Z,95808.00
2023-03-03T10:31:28.414Z,95812.00
2023-03-03T10:35:40.950Z,95815.00
2023-03-03T10:40:02.762Z,95812.00
2023-03-03T10:44:28.539Z,95806.00
2023-03-03T10:48:52.104Z,95808.00
2023-03-03T10:53:10.172Z,95814.00
2023-03-03T10:57:22.888Z,95805.00
2023-03-03T11:01:37.128Z,95806.00
2023-03-03T11:05:43.963Z,95807.00
2023-03-03T11:10:14.967Z,95812.00
2023-03-03T11:14:24.955Z,95824.00
2023-03-03T11:18:36.677Z,95828.00
2023-03-03T11:22:47.610Z,95822.00
2023-03-03T11:27:03.716Z,95824.00
2023-03-03T11:31:19.701Z,95820.00
2023-03-03T11:35:27.698Z,95830.00
2023-03-03T11:39:30.608Z,95829.00
2023-03-03T11:43:39.808Z,95821.00
2023-03-03T11:47:52.221Z,95813.00
2023-03-03T11:52:05.988Z,95803.00
2023-03-03T11:56:21.900Z,95804.00
2023-03-03T12:00:32.278Z,95789.00
2023-03-03T12:04:41.911Z,95799.00
2023-03-03T12:09:11.769Z,95800.00
2023-03-03T12:13:22.046Z,95790.00
2023-03-03T12:17:38.022Z,95789.00
2023-03-03T12:21:58.091Z,95786.00
2023-03-03T12:26:07.116Z,95779.00
2023-03-03T12:30:21.366Z,95782.00
2023-03-03T12:34:33.683Z,95782.00
2023-03-03T12:38:45.191Z,95784.00
2023-03-03T12:42:58.675Z,95784.00
2023-03-03T12:47:07.498Z,95773.00
2023-03-03T12:51:19.923Z,95780.00
2023-03-03T12:55:33.928Z,95778.00
2023-03-03T12:59:44.033Z,95776.00
2023-03-03T13:03:56.701Z,95769.00
2023-03-03T13:08:15.172Z,95779.00
2023-03-03T13:12:39.311Z,95786.00
2023-03-03T13:16:46.830Z,95792.00
2023-03-03T13:20:54.928Z,95787.00
2023-03-03T13:25:04.888Z,95786.00
2023-03-03T13:29:20.206Z,95797.00
2023-03-03T13:33:28.011Z,95780.00
2023-03-03T13:37:34.169Z,95770.00
2023-03-03T13:41:45.378Z,95786.00
2023-03-03T13:46:06.523Z,95774.00
2023-03-03T13:50:23.398Z,95766.00
2023-03-03T13:54:51.921Z,95762.00
2023-03-03T13:59:04.564Z,95760.00
2023-03-03T14:03:27.102Z,95751.00
2023-03-03T14:07:35.162Z,95753.00
2023-03-03T14:11:46.808Z,95745.00
2023-03-03T14:15:55.809Z,95744.00
2023-03-03T14:20:12.756Z,95739.00
2023-03-03T14:24:18.511Z,95742.00
2023-03-03T14:28:23.176Z,95738.00
2023-03-03T14:32:43.225Z,95737.00
2023-03-03T14:36:49.262Z,95738.00
2023-03-03T14:41:07.396Z,95745.00
2023-03-03T14:45:33.588Z,95739.00
2023-03-03T14:49:38.416Z,95732.00
2023-03-03T14:53:45.424Z,95748.00
2023-03-03T14:57:48.621Z,95745.00
2023-03-03T15:01:59.318Z,95740.00
2023-03-03T15:06:02.128Z,95740.00
2023-03-03T15:10:07.784Z,95746.00
2023-03-03T15:14:15.202Z,95737.00
2023-03-03T15:18:18.489Z,95740.00
2023-03-03T15:22:29.235Z,95737.00
2023-03-03T15:26:44.235Z,95752.00
2023-03-03T15:30:54.343Z,95745.00
2023-03-03T15:35:05.851Z,95761.00
2023-03-03T15:39:22.089Z,95756.00
2023-03-03T15:43:29.442Z,95756.00
2023-03-03T15:47:45.796Z,95753.00
2023-03-03T15:52:03.830Z,95754.00
2023-03-03T15:56:21.708Z,95748.00
2023-03-03T16:00:38.751Z,95745.00
2023-03-03T16:04:48.876Z,95753.00
2023-03-03T16:08:59.295Z,95745.00
2023-03-03T16:13:20.599Z,95746.00
2023-03-03T16:17:32.521Z,95754.00
2023-03-03T16:21:53.501Z,95743.00
2023-03-03T16:26:06.516Z,95753.00
2023-03-03T16:30:27.433Z,95757.00
2023-03-03T16:34:38.583Z,95769.00
2023-03-03T16:38:44.889Z,95757.00
2023-03-03T16:42:52.533Z,95766.00
2023-03-03T16:47:07.366Z,95767.00
2023-03-03T16:51:29.293Z,95773.00
2023-03-03T16:55:36.637Z,95775.00
2023-03-03T17:00:05.377Z,95786.00
2023-03-03T17:04:16.004Z,95786.00
2023-03-03T17:08:41.815Z,95790.00
2023-03-03T17:13:10.624Z,95789.00
2023-03-03T17:17:26.968Z,95787.00
2023-03-03T17:21:40.348Z,95797.00
2023-03-03T17:25:51.105Z,95793.00
2023-03-03T17:30:04.181Z,95793.00
2023-03-03T17:34:19.011Z,95803.00
2023-03-03T17:38:32.737Z,95801.00
2023-03-03T17:42:44.388Z,95807.00
2023-03-03T17:46:51.434Z,95811.00
2023-03-03T17:51:09.484Z,95821.00
2023-03-03T17:55:36.730Z,95824.00
2023-03-03T17:59:53.128Z,95831.00
2023-03-03T18:04:35.366Z,95826.00
2023-03-03T18:09:19.690Z,95832.00
2023-03-03T18:13:41.964Z,95832.00
2023-03-03T18:18:05.915Z,95826.00
2023-03-03T18:22:14.006Z,95833.00
2023-03-03T18:26:40.363Z,95840.00
2023-03-03T18:30:59.330Z,95836.00
2023-03-03T18:35:25.702Z,95838.00
2023-03-03T18:39:46.572Z,95841.00
2023-03-03T18:43:56.275Z,95834.00
2023-03-03T18:48:06.049Z,95841.00
2023-03-03T18:52:19.348Z,95834.00
2023-03-03T18:56:44.908Z,95841.00
2023-03-03T19:00:50.308Z,95835.00
2023-03-03T19:04:56.018Z,95847.00
2023-03-03T19:09:00.308Z,95853.00
2023-03-03T19:13:03.180Z,95848.00
2023-03-03T19:17:39.340Z,95852.00
2023-03-03T19:21:43.944Z,95845.00
2023-03-03T19:26:21.424Z,95855.00
2023-03-03T19:30:48.755Z,95855.00
2023-03-03T19:34:58.826Z,95856.00
2023-03-03T19:39:23.522Z,95858.00
2023-03-03T19:43:38.258Z,95855.00
2023-03-03T19:47:47.311Z,95857.00
2023-03-03T19:52:00.276Z,95860.00
2023-03-03T19:56:16.889Z,95864.00
2023-03-03T20:00:24.592Z,95857.00
2023-03-03T20:04:40.606Z,95863.00
2023-03-03T20:08:54.371Z,95866.00
2023-03-03T20:13:08.473Z,95852.00
2023-03-03T20:17:58.542Z,95874.00
2023-03-03T20:22:09.586Z,95874.00
2023-03-03T20:26:17.786Z,95867.00
2023-03-03T20:30:46.585Z,95882.00
2023-03-03T20:35:03.206Z,95878.00
2023-03-03T20:39:08.184Z,95863.00
2023-03-03T20:43:22.748Z,95866.00
2023-03-03T20:47:38.156Z,95875.00
2023-03-03T20:51:46.515Z,95868.00
2023-03-03T20:55:59.622Z,95868.00
2023-03-03T21:00:07.658Z,95871.00
2023-03-03T21:04:18.779Z,95870.00
2023-03-03T21:08:41.230Z,95876.00
2023-03-03T21:12:44.236Z,95873.00
2023-03-03T21:16:47.116Z,95876.00
2023-03-03T21:20:49.922Z,95871.00
2023-03-03T21:24:55.908Z,95872.00
2023-03-03T21:29:03.689Z,95880.00
2023-03-03T21:33:06.491Z,95880.00
2023-03-03T21:37:10.722Z,95877.00
2023-03-03T21:41:16.679Z,95881.00
2023-03-03T21:45:20.403Z,95880.00
2023-03-03T21:49:23.245Z,95877.00
2023-03-03T21:53:26.623Z,95883.00
2023-03-03T21:57:30.848Z,95884.00
2023-03-03T22:01:33.746Z,95884.00
2023-03-03T22:05:37.182Z,95880.00
2023-03-03T22:09:40.161Z,95884.00
2023-03-03T22:13:44.306Z,95879.00
2023-03-03T22:17:47.166Z,95888.00
2023-03-03T22:21:50.562Z,95881.00
2023-03-03T22:25:53.335Z,95883.00
2023-03-03T22:29:57.509Z,95882.00
2023-03-03T22:34:00.479Z,95888.00
2023-03-03T22:38:03.438Z,95886.00
2023-03-03T22:42:06.531Z,95883.00
2023-03-03T22:46:10.888Z,95890.00
2023-03-03T22:50:16.815Z,95890.00
2023-03-03T22:54:19.551Z,95892.00
2023-03-03T22:58:25.407Z,95881.00
2023-03-03T23:02:29.793Z,95888.00
2023-03-03T23:06:32.562Z,95879.00
2023-03-03T23:10:35.674Z,95882.00
2023-03-03T23:14:38.419Z,95881.00
2023-03-03T23:18:42.665Z,95884.00
2023-03-03T23:22:47.121Z,95876.00
2023-03-03T23:26:51.762Z,95881.00
2023-03-03T23:30:54.578Z,95872.00
2023-03-03T23:34:58.703Z,95877.00
2023-03-03T23:39:01.463Z,95872.00
2023-03-03T23:43:04.205Z,95866.00
2023-03-03T23:47:07.555Z,95865.00
2023-03-03T23:51:11.627Z,95866.00
2023-03-03T23:55:14.347Z,95875.00
2023-03-03T23:59:17.207Z,95863.00
